Time;durP1;ratioP1;P1;durP2;ratioP2;P2;SDS_P1;SDS_P2;PMS_P1;PMS_P2;Temp;Humidity;BMP_temperature;BMP_pressure;BME280_temperature;BME280_humidity;BME280_pressure;Samples;Min_cycle;Max_cycle;Signal;HPM_P1;HPM_P2
2022/05/25 00:01:06;;;;;;;0.90;0.50;;;;;;;;;;4991440;28;20475;-71
2022/05/25 00:03:33;;;;;;;0.53;0.53;;;;;;;;;;4986280;28;20448;-71
2022/05/25 00:06:00;;;;;;;0.60;0.60;;;;;;;;;;4990306;28;20905;-72
2022/05/25 00:08:27;;;;;;;0.50;0.50;;;;;;;;;;4990193;28;20483;-71
2022/05/25 00:10:53;;;;;;;0.50;0.50;;;;;;;;;;4990327;28;20432;-71
2022/05/25 00:13:19;;;;;;;0.67;0.63;;;;;;;;;;4992333;28;20857;-71
2022/05/25 00:15:45;;;;;;;0.40;0.40;;;;;;;;;;4988670;28;20433;-71
2022/05/25 00:18:11;;;;;;;1.80;0.60;;;;;;;;;;4987525;28;20460;-71
2022/05/25 00:20:37;;;;;;;0.70;0.40;;;;;;;;;;4991239;28;20938;-71
2022/05/25 00:23:04;;;;;;;1.60;0.80;;;;;;;;;;4992137;28;20881;-72
2022/05/25 00:25:33;;;;;;;0.50;0.50;;;;;;;;;;4990108;28;20492;-71
2022/05/25 00:28:03;;;;;;;0.67;0.50;;;;;;;;;;4991771;28;20468;-71
2022/05/25 00:30:29;;;;;;;3.10;0.60;;;;;;;;;;4991841;28;20417;-71
2022/05/25 00:32:56;;;;;;;0.70;0.70;;;;;;;;;;4990724;28;20469;-72
2022/05/25 00:35:23;;;;;;;1.80;0.80;;;;;;;;;;4991666;28;20468;-71
2022/05/25 00:37:49;;;;;;;0.40;0.40;;;;;;;;;;4991324;28;20437;-71
2022/05/25 00:40:17;;;;;;;0.93;0.40;;;;;;;;;;4990192;28;20448;-72
2022/05/25 00:42:43;;;;;;;0.53;0.53;;;;;;;;;;4987035;28;20499;-71
2022/05/25 00:45:09;;;;;;;0.60;0.60;;;;;;;;;;4991668;28;20429;-71
2022/05/25 00:47:36;;;;;;;0.53;0.53;;;;;;;;;;4990378;28;20944;-71
2022/05/25 00:50:03;;;;;;;0.60;0.60;;;;;;;;;;4989539;28;20491;-71
2022/05/25 00:52:29;;;;;;;0.53;0.53;;;;;;;;;;4990286;28;20456;-72
2022/05/25 00:54:58;;;;;;;0.60;0.60;;;;;;;;;;4989862;28;20467;-71
2022/05/25 00:57:35;;;;;;;3.17;0.50;;;;;;;;;;4990210;28;20432;-71
2022/05/25 01:00:06;;;;;;;2.30;0.60;;;;;;;;;;4991473;28;20420;-72
2022/05/25 01:02:33;;;;;;;0.60;0.60;;;;;;;;;;4991373;28;20992;-72
2022/05/25 01:04:59;;;;;;;0.63;0.63;;;;;;;;;;4990288;28;20491;-71
2022/05/25 01:07:25;;;;;;;0.87;0.60;;;;;;;;;;4987118;28;20961;-71
2022/05/25 01:10:01;;;;;;;0.50;0.50;;;;;;;;;;4990224;28;20418;-72
2022/05/25 01:12:37;;;;;;;1.77;0.73;;;;;;;;;;4990358;28;20720;-71
2022/05/25 01:15:09;;;;;;;0.60;0.60;;;;;;;;;;4987831;28;21682;-72
2022/05/25 01:17:41;;;;;;;2.43;0.90;;;;;;;;;;4988777;28;20437;-71
2022/05/25 01:20:13;;;;;;;0.73;0.60;;;;;;;;;;4991035;28;20508;-71
2022/05/25 01:22:57;;;;;;;0.60;0.60;;;;;;;;;;4990728;28;20484;-72
2022/05/25 01:25:40;;;;;;;0.80;0.80;;;;;;;;;;4989773;28;20420;-72
2022/05/25 01:28:16;;;;;;;1.00;1.00;;;;;;;;;;4990998;28;20437;-72
2022/05/25 01:30:46;;;;;;;0.70;0.70;;;;;;;;;;4990221;28;20929;-72
2022/05/25 01:33:18;;;;;;;0.60;0.50;;;;;;;;;;4990788;28;20479;-71
2022/05/25 01:35:50;;;;;;;2.53;0.53;;;;;;;;;;4989450;28;20799;-71
2022/05/25 01:38:22;;;;;;;4.23;0.67;;;;;;;;;;4990147;28;20433;-71
2022/05/25 01:40:51;;;;;;;0.70;0.67;;;;;;;;;;4989359;28;20441;-71
2022/05/25 01:43:17;;;;;;;2.77;1.27;;;;;;;;;;4990657;28;20839;-72
2022/05/25 01:45:48;;;;;;;0.70;0.70;;;;;;;;;;4987724;28;21011;-71
2022/05/25 01:48:16;;;;;;;0.70;0.70;;;;;;;;;;4989272;28;20437;-71
2022/05/25 01:50:44;;;;;;;0.50;0.50;;;;;;;;;;4987559;28;21007;-72
2022/05/25 01:53:12;;;;;;;6.33;0.70;;;;;;;;;;4986102;28;20523;-71
2022/05/25 01:55:44;;;;;;;0.70;0.70;;;;;;;;;;4989795;28;20417;-71
2022/05/25 01:58:12;;;;;;;3.93;1.00;;;;;;;;;;4990100;28;20941;-72
2022/05/25 02:00:39;;;;;;;7.53;1.10;;;;;;;;;;4990403;28;20465;-71
2022/05/25 02:06:00;;;;;;;0.60;0.60;;;;;;;;;;4987745;28;20424;-72
2022/05/25 02:08:32;;;;;;;0.97;0.50;;;;;;;;;;4988302;28;20451;-71
2022/05/25 02:11:10;;;;;;;0.70;0.70;;;;;;;;;;4987922;28;20432;-71
2022/05/25 02:13:44;;;;;;;0.60;0.60;;;;;;;;;;4987245;28;20498;-72
2022/05/25 02:16:18;;;;;;;1.17;0.43;;;;;;;;;;4987845;28;20504;-71
2022/05/25 02:19:05;;;;;;;1.83;0.73;;;;;;;;;;4989258;28;20444;-71
2022/05/25 02:21:54;;;;;;;0.60;0.60;;;;;;;;;;4985667;28;20472;-71
2022/05/25 02:24:41;;;;;;;1.37;0.80;;;;;;;;;;4990226;28;20481;-72
2022/05/25 02:27:12;;;;;;;1.43;0.73;;;;;;;;;;4989662;28;20425;-71
2022/05/25 02:29:41;;;;;;;0.70;0.70;;;;;;;;;;4989492;28;20431;-71
2022/05/25 02:32:10;;;;;;;0.60;0.60;;;;;;;;;;4988135;28;20433;-71
2022/05/25 02:34:38;;;;;;;0.60;0.53;;;;;;;;;;4989779;28;20453;-71
2022/05/25 02:37:05;;;;;;;0.60;0.60;;;;;;;;;;4988254;28;20568;-71
2022/05/25 02:39:31;;;;;;;4.03;0.50;;;;;;;;;;4987906;28;20531;-71
2022/05/25 02:41:57;;;;;;;0.97;0.73;;;;;;;;;;4988149;28;20484;-71
2022/05/25 02:44:24;;;;;;;0.50;0.50;;;;;;;;;;4994196;28;20435;-72
2022/05/25 02:46:50;;;;;;;0.50;0.50;;;;;;;;;;4992713;28;20423;-71
2022/05/25 02:49:16;;;;;;;1.63;0.63;;;;;;;;;;4990195;28;20743;-72
2022/05/25 02:51:42;;;;;;;0.63;0.63;;;;;;;;;;4993318;28;20866;-72
2022/05/25 02:54:09;;;;;;;1.27;1.27;;;;;;;;;;4992324;28;20433;-72
2022/05/25 02:56:36;;;;;;;0.90;0.90;;;;;;;;;;4993119;28;20428;-72
2022/05/25 02:59:02;;;;;;;2.93;1.30;;;;;;;;;;4991632;28;21563;-72
2022/05/25 03:01:29;;;;;;;2.57;1.87;;;;;;;;;;4990519;28;20460;-72
2022/05/25 03:03:55;;;;;;;1.17;1.17;;;;;;;;;;4992929;28;20449;-72
2022/05/25 03:06:21;;;;;;;1.77;0.87;;;;;;;;;;4992926;28;20420;-72
2022/05/25 03:08:47;;;;;;;0.60;0.60;;;;;;;;;;4992757;28;20437;-71
2022/05/25 03:11:13;;;;;;;0.50;0.50;;;;;;;;;;4990908;28;20495;-71
2022/05/25 03:13:41;;;;;;;0.47;0.47;;;;;;;;;;4992832;28;20427;-72
2022/05/25 03:16:08;;;;;;;0.63;0.63;;;;;;;;;;4993009;28;20921;-71
2022/05/25 03:18:34;;;;;;;0.93;0.93;;;;;;;;;;4993133;28;20450;-71
2022/05/25 03:21:00;;;;;;;3.93;0.80;;;;;;;;;;4993324;28;20424;-72
2022/05/25 03:23:26;;;;;;;0.93;0.60;;;;;;;;;;4989426;28;21046;-72
2022/05/25 03:25:52;;;;;;;0.50;0.50;;;;;;;;;;4990697;28;20436;-72
2022/05/25 03:28:18;;;;;;;0.93;0.80;;;;;;;;;;4992380;28;20495;-71
2022/05/25 03:30:45;;;;;;;0.57;0.57;;;;;;;;;;4993080;28;20478;-72
2022/05/25 03:33:11;;;;;;;3.13;0.63;;;;;;;;;;4990665;28;20437;-71
2022/05/25 03:35:37;;;;;;;1.40;0.83;;;;;;;;;;4990950;28;20448;-71
2022/05/25 03:38:04;;;;;;;1.30;0.70;;;;;;;;;;4991725;28;20465;-71
2022/05/25 03:40:30;;;;;;;1.40;0.60;;;;;;;;;;4992580;28;20512;-71
2022/05/25 03:42:57;;;;;;;2.27;0.60;;;;;;;;;;4993041;28;20484;-71
2022/05/25 03:45:24;;;;;;;2.63;0.50;;;;;;;;;;4989332;28;20528;-71
2022/05/25 03:47:50;;;;;;;0.90;0.80;;;;;;;;;;4991320;28;20532;-71
2022/05/25 03:50:18;;;;;;;0.70;0.70;;;;;;;;;;4991210;28;21115;-71
2022/05/25 03:52:44;;;;;;;0.80;0.80;;;;;;;;;;4990544;28;20987;-71
2022/05/25 03:55:11;;;;;;;0.57;0.50;;;;;;;;;;4985859;28;20540;-71
2022/05/25 03:57:37;;;;;;;4.53;0.90;;;;;;;;;;4990435;28;20452;-71
2022/05/25 04:00:06;;;;;;;0.73;0.70;;;;;;;;;;4991649;28;20441;-71
2022/05/25 04:02:32;;;;;;;0.83;0.50;;;;;;;;;;4989699;28;20515;-71
2022/05/25 04:05:07;;;;;;;1.80;0.60;;;;;;;;;;4988642;28;20432;-71
2022/05/25 04:08:00;;;;;;;2.17;0.60;;;;;;;;;;4989904;28;20448;-71
2022/05/25 04:10:27;;;;;;;0.70;0.70;;;;;;;;;;4986936;28;20429;-71
2022/05/25 04:12:53;;;;;;;2.00;1.00;;;;;;;;;;4991819;28;20505;-72
2022/05/25 04:15:21;;;;;;;3.23;1.10;;;;;;;;;;4991940;28;20831;-71
2022/05/25 04:17:47;;;;;;;1.13;1.13;;;;;;;;;;4991686;28;20548;-71
2022/05/25 04:20:13;;;;;;;1.23;0.70;;;;;;;;;;4990711;28;20810;-71
2022/05/25 04:22:39;;;;;;;1.30;1.30;;;;;;;;;;4992137;28;20980;-71
2022/05/25 04:25:07;;;;;;;0.70;0.70;;;;;;;;;;4991642;28;20425;-71
2022/05/25 04:27:34;;;;;;;1.90;0.93;;;;;;;;;;4991043;28;20511;-71
2022/05/25 04:30:00;;;;;;;0.87;0.87;;;;;;;;;;4990184;28;20429;-71
2022/05/25 04:32:26;;;;;;;2.60;1.03;;;;;;;;;;4992055;28;20956;-71
2022/05/25 04:34:53;;;;;;;4.23;0.93;;;;;;;;;;4990237;28;20441;-71
2022/05/25 04:40:04;;;;;;;5.63;0.80;;;;;;;;;;4991668;28;20460;-71
2022/05/25 04:42:30;;;;;;;1.40;0.80;;;;;;;;;;4987032;28;20861;-71
2022/05/25 04:45:00;;;;;;;0.93;0.80;;;;;;;;;;4986573;28;20429;-71
2022/05/25 04:47:30;;;;;;;0.70;0.60;;;;;;;;;;4991164;28;20488;-72
2022/05/25 04:49:56;;;;;;;1.10;1.10;;;;;;;;;;4987777;28;20572;-71
2022/05/25 04:52:22;;;;;;;0.77;0.77;;;;;;;;;;4988414;28;20445;-71
2022/05/25 04:54:48;;;;;;;3.60;0.93;;;;;;;;;;4989179;28;20527;-72
2022/05/25 04:57:20;;;;;;;0.67;0.67;;;;;;;;;;4990808;28;20529;-72
2022/05/25 04:59:47;;;;;;;0.90;0.90;;;;;;;;;;4990308;28;20409;-71
2022/05/25 05:02:13;;;;;;;2.10;0.80;;;;;;;;;;4991473;28;20512;-71
2022/05/25 05:04:39;;;;;;;0.70;0.70;;;;;;;;;;4991150;28;20444;-71
2022/05/25 05:07:05;;;;;;;2.47;0.97;;;;;;;;;;4986629;28;20507;-72
2022/05/25 05:09:35;;;;;;;0.70;0.70;;;;;;;;;;4988766;28;20934;-71
2022/05/25 05:12:01;;;;;;;1.70;1.70;;;;;;;;;;4986075;28;20468;-75
2022/05/25 05:14:27;;;;;;;0.60;0.60;;;;;;;;;;4988684;28;20445;-72
2022/05/25 05:17:00;;;;;;;0.90;0.90;;;;;;;;;;4984820;28;20445;-76
2022/05/25 05:19:27;;;;;;;4.03;0.90;;;;;;;;;;4988854;28;20716;-75
2022/05/25 05:21:59;;;;;;;1.13;1.03;;;;;;;;;;4989333;28;20476;-75
2022/05/25 05:24:26;;;;;;;0.93;0.93;;;;;;;;;;4989176;28;20444;-75
2022/05/25 05:26:52;;;;;;;2.43;0.70;;;;;;;;;;4988483;28;20457;-75
2022/05/25 05:29:18;;;;;;;1.93;0.80;;;;;;;;;;4987896;28;20523;-75
2022/05/25 05:31:44;;;;;;;1.40;0.40;;;;;;;;;;4986340;28;20433;-75
2022/05/25 05:34:11;;;;;;;1.33;0.87;;;;;;;;;;4988165;28;20445;-75
2022/05/25 05:36:40;;;;;;;4.40;0.60;;;;;;;;;;4985134;28;20438;-74
2022/05/25 05:39:08;;;;;;;0.80;0.80;;;;;;;;;;4987735;28;20437;-75
2022/05/25 05:41:40;;;;;;;1.33;1.23;;;;;;;;;;4987694;28;20473;-75
2022/05/25 05:44:08;;;;;;;8.53;1.00;;;;;;;;;;4987576;28;20444;-73
2022/05/25 05:46:36;;;;;;;14.70;1.60;;;;;;;;;;4984680;28;20496;-75
2022/05/25 05:49:04;;;;;;;0.70;0.70;;;;;;;;;;4984968;28;20499;-74
2022/05/25 05:51:30;;;;;;;1.30;1.07;;;;;;;;;;4987402;28;20500;-75
2022/05/25 05:53:56;;;;;;;0.80;0.70;;;;;;;;;;4980884;28;20474;-75
2022/05/25 05:56:22;;;;;;;1.23;0.77;;;;;;;;;;4988793;28;20452;-75
2022/05/25 05:58:48;;;;;;;0.83;0.83;;;;;;;;;;4987093;28;20434;-75
2022/05/25 06:01:14;;;;;;;0.70;0.70;;;;;;;;;;4985322;28;20481;-75
2022/05/25 06:03:39;;;;;;;3.70;0.80;;;;;;;;;;4986162;28;20447;-75
2022/05/25 06:06:07;;;;;;;0.80;0.80;;;;;;;;;;4983054;28;20438;-74
2022/05/25 06:08:33;;;;;;;1.07;1.07;;;;;;;;;;4988879;28;20921;-70
2022/05/25 06:10:59;;;;;;;0.93;0.90;;;;;;;;;;4988593;28;20429;-75
2022/05/25 06:13:25;;;;;;;2.97;0.90;;;;;;;;;;4986944;28;20444;-74
2022/05/25 06:21:21;;;;;;;2.57;0.70;;;;;;;;;;4989969;28;20443;-75
2022/05/25 06:23:47;;;;;;;0.87;0.87;;;;;;;;;;4987281;28;20466;-74
2022/05/25 06:26:15;;;;;;;2.33;0.90;;;;;;;;;;4988511;28;20471;-75
2022/05/25 06:28:42;;;;;;;0.70;0.70;;;;;;;;;;4988714;28;20433;-74
2022/05/25 06:31:07;;;;;;;1.00;1.00;;;;;;;;;;4988140;28;20452;-75
2022/05/25 06:33:34;;;;;;;2.30;1.27;;;;;;;;;;4981622;28;20429;-75
2022/05/25 06:36:14;;;;;;;1.10;1.10;;;;;;;;;;4983919;28;20433;-76
2022/05/25 06:38:40;;;;;;;1.63;0.70;;;;;;;;;;4989423;28;22433;-73
2022/05/25 06:41:06;;;;;;;0.90;0.90;;;;;;;;;;4985098;28;20433;-83
2022/05/25 06:43:32;;;;;;;0.90;0.70;;;;;;;;;;4988096;28;20487;-85
2022/05/25 06:45:58;;;;;;;0.70;0.70;;;;;;;;;;4988398;28;20495;-83
2022/05/25 06:48:24;;;;;;;0.60;0.60;;;;;;;;;;4985585;28;20476;-72
2022/05/25 06:50:50;;;;;;;0.70;0.70;;;;;;;;;;4987846;28;20468;-72
2022/05/25 06:53:16;;;;;;;1.07;0.60;;;;;;;;;;4985576;28;20445;-72
2022/05/25 06:55:42;;;;;;;25.27;1.13;;;;;;;;;;4987993;28;20441;-73
2022/05/25 06:58:08;;;;;;;0.40;0.40;;;;;;;;;;4987403;28;20491;-75
2022/05/25 07:00:34;;;;;;;1.13;0.70;;;;;;;;;;4984172;28;20433;-73
2022/05/25 07:03:04;;;;;;;0.53;0.53;;;;;;;;;;4987656;28;21091;-75
2022/05/25 07:05:30;;;;;;;0.40;0.40;;;;;;;;;;4983997;28;20447;-72
2022/05/25 07:07:56;;;;;;;0.77;0.53;;;;;;;;;;4986237;28;20564;-72
2022/05/25 07:10:22;;;;;;;0.60;0.50;;;;;;;;;;4985978;28;20452;-72
2022/05/25 07:12:48;;;;;;;0.53;0.53;;;;;;;;;;4989081;28;20448;-72
2022/05/25 07:15:14;;;;;;;3.40;0.80;;;;;;;;;;4987356;28;20421;-72
2022/05/25 07:17:40;;;;;;;0.50;0.50;;;;;;;;;;4989210;28;20472;-74
2022/05/25 07:20:09;;;;;;;0.60;0.60;;;;;;;;;;4988497;28;20422;-72
2022/05/25 07:22:35;;;;;;;0.60;0.60;;;;;;;;;;4987270;28;20476;-72
2022/05/25 07:25:01;;;;;;;0.50;0.50;;;;;;;;;;4984370;28;20464;-75
2022/05/25 07:27:27;;;;;;;1.37;0.80;;;;;;;;;;4987541;28;20448;-73
2022/05/25 07:29:53;;;;;;;0.77;0.77;;;;;;;;;;4987762;28;20428;-74
2022/05/25 07:32:19;;;;;;;0.60;0.60;;;;;;;;;;4991417;28;20532;-72
2022/05/25 07:35:00;;;;;;;0.70;0.40;;;;;;;;;;4990703;28;20460;-75
2022/05/25 07:37:32;;;;;;;2.20;1.10;;;;;;;;;;4989924;28;20527;-73
2022/05/25 07:40:02;;;;;;;0.40;0.40;;;;;;;;;;4987959;28;20428;-76
2022/05/25 07:42:29;;;;;;;2.43;0.70;;;;;;;;;;4989935;28;20515;-75
2022/05/25 07:44:56;;;;;;;0.60;0.60;;;;;;;;;;4990559;28;20933;-68
2022/05/25 07:47:22;;;;;;;0.80;0.70;;;;;;;;;;4990953;28;20869;-72
2022/05/25 07:49:48;;;;;;;0.60;0.60;;;;;;;;;;4991709;28;20522;-74
2022/05/25 07:52:14;;;;;;;0.93;0.50;;;;;;;;;;4988654;28;20441;-74
2022/05/25 07:54:41;;;;;;;0.60;0.40;;;;;;;;;;4983618;28;20850;-72
2022/05/25 07:57:07;;;;;;;0.60;0.60;;;;;;;;;;4988242;28;20429;-71
2022/05/25 07:59:33;;;;;;;1.43;0.73;;;;;;;;;;4990232;28;20455;-74
2022/05/25 08:07:31;;;;;;;0.60;0.60;;;;;;;;;;4992056;28;20932;-75
2022/05/25 08:10:01;;;;;;;0.70;0.70;;;;;;;;;;4991901;28;20778;-74
2022/05/25 08:12:28;;;;;;;0.73;0.50;;;;;;;;;;4986994;28;20856;-74
2022/05/25 08:14:54;;;;;;;0.60;0.60;;;;;;;;;;4991223;28;20944;-75
2022/05/25 08:17:20;;;;;;;0.67;0.50;;;;;;;;;;4988655;28;20437;-75
2022/05/25 08:19:46;;;;;;;1.53;1.50;;;;;;;;;;4989075;28;20460;-75
2022/05/25 08:22:12;;;;;;;0.40;0.40;;;;;;;;;;4991669;28;20496;-75
2022/05/25 08:24:38;;;;;;;2.63;0.80;;;;;;;;;;4990855;28;20831;-74
2022/05/25 08:27:05;;;;;;;0.50;0.50;;;;;;;;;;4989598;28;20484;-74
2022/05/25 08:29:31;;;;;;;1.97;0.40;;;;;;;;;;4990405;28;20429;-75
2022/05/25 08:31:58;;;;;;;0.50;0.50;;;;;;;;;;4991932;28;20858;-75
2022/05/25 08:34:24;;;;;;;15.83;0.90;;;;;;;;;;4990774;28;20426;-75
2022/05/25 08:36:50;;;;;;;2.60;0.63;;;;;;;;;;4991643;28;20421;-73
2022/05/25 08:39:16;;;;;;;1.00;1.00;;;;;;;;;;4990788;28;20567;-73
2022/05/25 08:41:43;;;;;;;0.67;0.40;;;;;;;;;;4990129;28;20563;-75
2022/05/25 08:44:10;;;;;;;0.70;0.70;;;;;;;;;;4989018;28;20444;-73
2022/05/25 08:46:36;;;;;;;0.50;0.40;;;;;;;;;;4988014;28;20429;-72
2022/05/25 08:49:03;;;;;;;0.60;0.60;;;;;;;;;;4988217;28;20452;-75
2022/05/25 08:51:30;;;;;;;1.70;0.50;;;;;;;;;;4986899;28;20491;-74
2022/05/25 08:53:57;;;;;;;0.40;0.40;;;;;;;;;;4990267;28;20940;-75
2022/05/25 08:56:56;;;;;;;2.00;1.17;;;;;;;;;;4988526;28;20468;-74
2022/05/25 08:59:22;;;;;;;3.73;0.87;;;;;;;;;;4977366;28;20445;-73
2022/05/25 09:01:58;;;;;;;3.50;0.60;;;;;;;;;;4988750;28;20523;-74
2022/05/25 09:04:33;;;;;;;0.60;0.60;;;;;;;;;;4987871;28;20602;-74
2022/05/25 09:07:03;;;;;;;0.73;0.73;;;;;;;;;;4989773;28;20482;-73
2022/05/25 09:09:29;;;;;;;0.40;0.40;;;;;;;;;;4988002;28;20564;-73
2022/05/25 09:12:02;;;;;;;0.50;0.50;;;;;;;;;;4986535;28;20520;-74
2022/05/25 09:14:42;;;;;;;1.33;0.70;;;;;;;;;;4989905;28;20894;-75
2022/05/25 09:17:14;;;;;;;0.50;0.50;;;;;;;;;;4987851;28;20433;-75
2022/05/25 09:19:44;;;;;;;0.90;0.40;;;;;;;;;;4990623;28;20456;-74
2022/05/25 09:22:13;;;;;;;0.50;0.50;;;;;;;;;;4990314;28;21031;-74
2022/05/25 09:24:39;;;;;;;0.60;0.60;;;;;;;;;;4990424;28;20459;-73
2022/05/25 09:27:06;;;;;;;0.50;0.50;;;;;;;;;;4988980;28;20441;-74
2022/05/25 09:29:32;;;;;;;0.60;0.60;;;;;;;;;;4987510;28;20448;-75
2022/05/25 09:32:00;;;;;;;0.70;0.70;;;;;;;;;;4986686;28;20907;-73
2022/05/25 09:34:44;;;;;;;0.40;0.40;;;;;;;;;;4985703;28;20440;-73
2022/05/25 09:37:38;;;;;;;2.20;0.60;;;;;;;;;;4988368;28;20944;-75
2022/05/25 09:40:07;;;;;;;1.03;0.80;;;;;;;;;;4979886;28;20517;-74
2022/05/25 09:42:34;;;;;;;0.90;0.50;;;;;;;;;;4986404;28;21014;-74
2022/05/25 09:45:00;;;;;;;1.80;0.60;;;;;;;;;;4986739;28;20445;-75
2022/05/25 09:47:33;;;;;;;0.67;0.67;;;;;;;;;;4984522;28;20487;-74
2022/05/25 09:49:59;;;;;;;2.63;0.60;;;;;;;;;;4988511;28;20503;-74
2022/05/25 09:52:38;;;;;;;2.87;1.23;;;;;;;;;;4986468;28;20448;-74
2022/05/25 09:55:09;;;;;;;1.90;0.43;;;;;;;;;;4986770;28;20926;-73
2022/05/25 09:57:37;;;;;;;0.60;0.60;;;;;;;;;;4987326;28;20425;-75
2022/05/25 10:00:23;;;;;;;0.70;0.70;;;;;;;;;;4986670;28;20432;-75
2022/05/25 10:02:50;;;;;;;0.40;0.40;;;;;;;;;;4986098;28;20852;-73
2022/05/25 10:05:23;;;;;;;0.40;0.40;;;;;;;;;;5003987;28;20525;-74
2022/05/25 10:08:08;;;;;;;1.00;0.70;;;;;;;;;;4989562;28;20476;-75
2022/05/25 10:10:36;;;;;;;3.50;0.70;;;;;;;;;;4989763;28;20436;-75
2022/05/25 10:13:16;;;;;;;3.33;0.40;;;;;;;;;;4989059;28;20486;-74
2022/05/25 10:15:42;;;;;;;0.50;0.50;;;;;;;;;;4983030;28;20510;-74
2022/05/25 10:18:12;;;;;;;1.43;0.80;;;;;;;;;;4987623;28;20953;-74
2022/05/25 10:20:41;;;;;;;0.70;0.63;;;;;;;;;;4983670;28;20441;-75
2022/05/25 10:23:08;;;;;;;0.60;0.37;;;;;;;;;;4982051;28;20488;-72
2022/05/25 10:25:43;;;;;;;1.07;1.07;;;;;;;;;;4978303;28;20437;-74
2022/05/25 10:28:18;;;;;;;2.50;1.27;;;;;;;;;;4988117;28;20437;-75
2022/05/25 10:36:47;;;;;;;0.60;0.60;;;;;;;;;;4985968;28;20440;-74
2022/05/25 10:39:28;;;;;;;3.13;0.60;;;;;;;;;;4973882;28;20959;-74
2022/05/25 10:42:00;;;;;;;1.53;0.57;;;;;;;;;;4982457;28;20496;-75
2022/05/25 10:44:30;;;;;;;0.80;0.60;;;;;;;;;;4987002;28;20448;-73
2022/05/25 10:46:57;;;;;;;0.67;0.57;;;;;;;;;;4986692;28;20909;-75
2022/05/25 10:49:23;;;;;;;2.93;0.60;;;;;;;;;;4985934;28;20471;-75
2022/05/25 10:52:01;;;;;;;0.60;0.60;;;;;;;;;;4985663;28;20826;-74
2022/05/25 10:54:55;;;;;;;1.70;0.60;;;;;;;;;;4987494;28;20439;-73
2022/05/25 10:57:40;;;;;;;0.40;0.40;;;;;;;;;;4988406;28;20445;-73
2022/05/25 11:00:16;;;;;;;0.93;0.50;;;;;;;;;;4984878;28;20425;-75
2022/05/25 11:02:53;;;;;;;0.93;0.50;;;;;;;;;;4988412;28;20476;-73
2022/05/25 11:05:19;;;;;;;0.50;0.50;;;;;;;;;;4991615;28;20455;-75
2022/05/25 11:07:45;;;;;;;0.50;0.40;;;;;;;;;;4991302;28;20503;-74
2022/05/25 11:10:11;;;;;;;0.40;0.40;;;;;;;;;;4987464;28;20449;-73
2022/05/25 11:12:40;;;;;;;0.50;0.50;;;;;;;;;;4990895;28;20784;-75
2022/05/25 11:15:15;;;;;;;0.50;0.50;;;;;;;;;;4990932;28;20560;-75
2022/05/25 11:17:49;;;;;;;0.50;0.50;;;;;;;;;;4992479;28;20428;-75
2022/05/25 11:20:35;;;;;;;1.23;0.60;;;;;;;;;;4991643;28;20444;-75
2022/05/25 11:23:13;;;;;;;0.60;0.60;;;;;;;;;;4991181;28;21058;-76
2022/05/25 11:25:57;;;;;;;4.20;0.63;;;;;;;;;;4991076;28;20855;-75
2022/05/25 11:28:29;;;;;;;1.23;0.70;;;;;;;;;;4993285;28;20436;-75
2022/05/25 11:31:08;;;;;;;6.80;0.50;;;;;;;;;;4991894;28;20433;-75
2022/05/25 11:33:37;;;;;;;2.53;0.50;;;;;;;;;;4991517;28;20467;-74
2022/05/25 11:36:07;;;;;;;0.70;0.70;;;;;;;;;;4990445;28;21209;-75
2022/05/25 11:38:47;;;;;;;0.93;0.40;;;;;;;;;;4992666;28;21003;-73
2022/05/25 11:41:13;;;;;;;0.87;0.87;;;;;;;;;;4991040;28;20543;-74
2022/05/25 11:43:48;;;;;;;0.60;0.60;;;;;;;;;;4992969;28;20575;-75
2022/05/25 11:46:23;;;;;;;0.80;0.80;;;;;;;;;;4987228;28;20655;-75
2022/05/25 11:48:51;;;;;;;0.93;0.73;;;;;;;;;;4992892;28;20433;-75
2022/05/25 11:51:35;;;;;;;0.50;0.50;;;;;;;;;;4990238;28;21047;-75
2022/05/25 11:54:20;;;;;;;0.60;0.60;;;;;;;;;;4986806;28;20514;-75
2022/05/25 11:56:57;;;;;;;5.90;0.70;;;;;;;;;;4991753;28;21035;-74
2022/05/25 11:59:43;;;;;;;2.83;0.50;;;;;;;;;;4991717;28;20420;-75
2022/05/25 12:02:09;;;;;;;2.40;0.73;;;;;;;;;;4987863;28;20627;-75
2022/05/25 12:05:01;;;;;;;1.80;0.40;;;;;;;;;;4991772;28;20551;-74
2022/05/25 12:07:33;;;;;;;0.70;0.70;;;;;;;;;;4991081;28;20595;-75
2022/05/25 12:09:59;;;;;;;0.47;0.47;;;;;;;;;;4992207;28;20496;-75
2022/05/25 12:12:30;;;;;;;5.47;1.17;;;;;;;;;;4991542;28;20509;-75
2022/05/25 12:15:15;;;;;;;0.40;0.40;;;;;;;;;;4989898;28;20185;-74
2022/05/25 12:17:47;;;;;;;0.90;0.60;;;;;;;;;;4987666;28;20964;-75
2022/05/25 12:20:27;;;;;;;2.20;0.53;;;;;;;;;;4990848;28;20912;-75
2022/05/25 12:22:53;;;;;;;0.60;0.60;;;;;;;;;;4991928;28;20480;-75
2022/05/25 12:25:20;;;;;;;0.70;0.70;;;;;;;;;;4988474;28;20441;-74
2022/05/25 12:27:49;;;;;;;0.40;0.40;;;;;;;;;;4990613;28;20425;-75
2022/05/25 12:30:37;;;;;;;0.70;0.50;;;;;;;;;;4990050;28;20421;-75
2022/05/25 12:33:05;;;;;;;0.73;0.73;;;;;;;;;;4990054;28;20432;-73
2022/05/25 12:35:33;;;;;;;0.70;0.70;;;;;;;;;;4989365;28;20451;-75
2022/05/25 12:37:59;;;;;;;0.60;0.60;;;;;;;;;;4989005;28;20441;-74
2022/05/25 12:40:32;;;;;;;0.60;0.60;;;;;;;;;;4989570;28;20877;-76
2022/05/25 12:42:58;;;;;;;0.53;0.50;;;;;;;;;;4988440;28;20484;-75
2022/05/25 12:48:31;;;;;;;0.87;0.40;;;;;;;;;;4991472;28;20417;-75
2022/05/25 12:50:59;;;;;;;3.03;0.50;;;;;;;;;;4987221;28;20491;-75
2022/05/25 12:53:31;;;;;;;0.57;0.57;;;;;;;;;;4990427;28;20422;-76
2022/05/25 12:55:57;;;;;;;0.40;0.40;;;;;;;;;;4989407;28;20464;-75
2022/05/25 12:58:34;;;;;;;0.70;0.50;;;;;;;;;;4991221;28;20471;-75
2022/05/25 13:01:08;;;;;;;1.13;0.67;;;;;;;;;;4991003;28;20420;-74
2022/05/25 13:03:40;;;;;;;1.33;0.60;;;;;;;;;;4989791;28;20480;-75
2022/05/25 13:06:07;;;;;;;0.60;0.60;;;;;;;;;;4989954;28;20539;-75
2022/05/25 13:08:48;;;;;;;0.37;0.37;;;;;;;;;;4990342;28;20863;-75
2022/05/25 13:11:40;;;;;;;0.80;0.43;;;;;;;;;;4987725;28;20956;-75
2022/05/25 13:14:07;;;;;;;8.70;0.80;;;;;;;;;;4982241;28;20492;-75
2022/05/25 13:16:42;;;;;;;0.60;0.60;;;;;;;;;;4989337;28;20435;-76
2022/05/25 13:19:27;;;;;;;2.10;0.50;;;;;;;;;;4991076;28;20425;-75
2022/05/25 13:21:53;;;;;;;0.60;0.60;;;;;;;;;;4990481;28;20833;-75
2022/05/25 13:24:33;;;;;;;0.77;0.70;;;;;;;;;;4990584;28;20536;-74
2022/05/25 13:27:13;;;;;;;2.23;0.90;;;;;;;;;;4990495;28;20459;-76
2022/05/25 13:29:49;;;;;;;0.50;0.50;;;;;;;;;;4989260;28;20444;-75
2022/05/25 13:32:24;;;;;;;3.60;0.90;;;;;;;;;;4989702;28;20487;-75
2022/05/25 13:34:50;;;;;;;0.57;0.57;;;;;;;;;;4990611;28;20516;-74
2022/05/25 13:37:16;;;;;;;2.70;0.60;;;;;;;;;;4984849;28;21019;-73
2022/05/25 13:39:42;;;;;;;0.97;0.90;;;;;;;;;;4989782;28;20432;-75
2022/05/25 13:42:11;;;;;;;0.50;0.50;;;;;;;;;;4990297;28;20475;-74
2022/05/25 13:44:42;;;;;;;1.00;0.60;;;;;;;;;;4989348;28;20425;-75
2022/05/25 13:47:08;;;;;;;0.60;0.50;;;;;;;;;;4989516;28;20449;-75
2022/05/25 13:49:38;;;;;;;3.03;0.57;;;;;;;;;;4990342;28;20939;-75
2022/05/25 13:52:11;;;;;;;1.80;0.70;;;;;;;;;;4990498;28;21076;-74
2022/05/25 13:54:37;;;;;;;1.10;0.90;;;;;;;;;;4989379;28;20792;-75
2022/05/25 13:57:04;;;;;;;0.80;0.50;;;;;;;;;;4990153;28;20425;-75
2022/05/25 13:59:32;;;;;;;0.97;0.63;;;;;;;;;;4990345;28;20417;-75
2022/05/25 14:02:10;;;;;;;1.37;0.60;;;;;;;;;;4987624;28;21074;-75
2022/05/25 14:04:37;;;;;;;2.47;0.80;;;;;;;;;;4987623;28;20456;-75
2022/05/25 14:07:03;;;;;;;0.60;0.60;;;;;;;;;;4989337;28;20816;-74
2022/05/25 14:12:18;;;;;;;1.70;0.40;;;;;;;;;;4989401;28;20427;-75
2022/05/25 14:14:49;;;;;;;0.70;0.70;;;;;;;;;;4990566;28;20910;-75
2022/05/25 14:17:24;;;;;;;0.73;0.73;;;;;;;;;;4989474;28;20436;-75
2022/05/25 14:19:54;;;;;;;0.40;0.40;;;;;;;;;;4989010;28;21015;-74
2022/05/25 14:22:23;;;;;;;0.77;0.50;;;;;;;;;;4987719;28;20981;-74
2022/05/25 14:24:50;;;;;;;1.63;0.37;;;;;;;;;;4989278;28;20512;-75
2022/05/25 14:27:16;;;;;;;2.50;0.80;;;;;;;;;;4987121;28;20491;-75
2022/05/25 14:29:43;;;;;;;0.40;0.40;;;;;;;;;;4981378;28;21219;-75
2022/05/25 14:32:14;;;;;;;1.80;0.57;;;;;;;;;;4985198;28;20193;-74
2022/05/25 14:34:41;;;;;;;0.97;0.80;;;;;;;;;;4990008;28;20425;-74
2022/05/25 14:37:08;;;;;;;0.57;0.57;;;;;;;;;;4989299;28;20437;-75
2022/05/25 14:39:36;;;;;;;0.50;0.50;;;;;;;;;;4992574;28;20991;-75
2022/05/25 14:42:04;;;;;;;2.83;0.67;;;;;;;;;;4993118;28;20472;-75
2022/05/25 14:44:39;;;;;;;1.63;0.60;;;;;;;;;;4991113;28;20498;-75
2022/05/25 14:47:24;;;;;;;0.40;0.40;;;;;;;;;;4993478;28;20416;-74
2022/05/25 14:49:55;;;;;;;7.83;6.53;;;;;;;;;;4993599;28;20483;-74
2022/05/25 14:52:24;;;;;;;2.47;0.70;;;;;;;;;;4991205;28;20426;-73
2022/05/25 14:54:51;;;;;;;1.57;1.30;;;;;;;;;;4991771;28;20429;-73
2022/05/25 14:57:18;;;;;;;0.60;0.60;;;;;;;;;;4992272;28;20429;-75
2022/05/25 14:59:45;;;;;;;0.50;0.50;;;;;;;;;;4992352;28;20965;-75
2022/05/25 15:02:26;;;;;;;0.50;0.50;;;;;;;;;;4989993;28;20911;-75
2022/05/25 15:04:52;;;;;;;0.80;0.80;;;;;;;;;;4990736;28;20433;-75
2022/05/25 15:07:23;;;;;;;1.70;0.43;;;;;;;;;;4991346;28;20934;-74
2022/05/25 15:09:49;;;;;;;0.60;0.60;;;;;;;;;;4993363;28;20421;-74
2022/05/25 15:12:20;;;;;;;0.77;0.60;;;;;;;;;;4991905;28;20464;-75
2022/05/25 15:20:42;;;;;;;0.60;0.60;;;;;;;;;;4993655;28;20404;-73
2022/05/25 15:23:17;;;;;;;0.90;0.70;;;;;;;;;;4989085;28;20492;-75
2022/05/25 15:25:50;;;;;;;0.40;0.40;;;;;;;;;;4992798;28;20514;-75
2022/05/25 15:28:19;;;;;;;1.27;0.60;;;;;;;;;;4993278;28;20413;-75
2022/05/25 15:30:56;;;;;;;1.13;0.40;;;;;;;;;;4993065;28;20913;-75
2022/05/25 15:33:23;;;;;;;0.60;0.60;;;;;;;;;;4991550;28;20944;-75